Time;durP1;ratioP1;P1;durP2;ratioP2;P2;SDS_P1;SDS_P2;PMS_P1;PMS_P2;Temp;Humidity;BMP_temperature;BMP_pressure;BME280_temperature;BME280_humidity;BME280_pressure;Samples;Min_cycle;Max_cycle;Signal;HPM_P1;HPM_P2
2023/04/24 00:01:14;;;;;;;3.20;1.00;;;;;;;12.62;68.77;99535.59;4116967;28;20035;-62
2023/04/24 00:03:20;;;;;;;2.70;1.25;;;;;;;12.54;68.46;99529.56;4118950;28;20081;-62
2023/04/24 00:05:24;;;;;;;2.58;1.40;;;;;;;12.67;67.94;99530.31;4122987;28;20135;-62
2023/04/24 00:07:27;;;;;;;3.50;1.40;;;;;;;12.53;68.44;99528.72;4124460;28;20054;-62
2023/04/24 00:09:30;;;;;;;2.28;1.25;;;;;;;12.50;68.61;99518.31;4128162;28;20293;-62
2023/04/24 00:11:33;;;;;;;2.42;1.10;;;;;;;12.48;68.48;99516.59;4129591;28;20038;-62
2023/04/24 00:13:38;;;;;;;1.70;1.15;;;;;;;12.36;68.99;99518.41;4114383;28;20070;-62
2023/04/24 00:15:41;;;;;;;1.30;1.15;;;;;;;12.39;69.35;99517.53;4116656;28;20039;-62
2023/04/24 00:17:43;;;;;;;2.05;1.13;;;;;;;12.46;68.88;99516.59;4120021;28;20037;-62
2023/04/24 00:19:46;;;;;;;4.05;1.38;;;;;;;12.50;69.06;99515.72;4127189;28;20042;-62
2023/04/24 00:21:50;;;;;;;4.90;1.55;;;;;;;12.47;68.96;99518.34;4126031;28;20081;-62
2023/04/24 00:23:54;;;;;;;3.97;1.27;;;;;;;12.55;69.20;99513.06;4128007;28;20041;-62
2023/04/24 00:25:56;;;;;;;4.65;1.35;;;;;;;12.53;68.91;99512.22;4122323;28;20043;-62
2023/04/24 00:27:59;;;;;;;2.42;1.45;;;;;;;12.61;68.42;99507.78;4120650;28;20062;-62
2023/04/24 00:30:05;;;;;;;2.63;1.52;;;;;;;12.57;68.92;99504.34;4135585;28;20077;-62
2023/04/24 00:32:08;;;;;;;1.27;1.05;;;;;;;12.61;68.72;99505.16;4122550;28;20054;-62
2023/04/24 00:34:11;;;;;;;4.78;1.33;;;;;;;12.63;68.37;99498.22;4129104;28;20041;-62
2023/04/24 00:36:14;;;;;;;1.83;1.17;;;;;;;12.60;68.80;99505.19;4129381;28;20484;-62
2023/04/24 00:38:17;;;;;;;2.42;1.20;;;;;;;12.55;68.60;99493.06;4128589;28;20042;-62
2023/04/24 00:40:20;;;;;;;2.92;1.48;;;;;;;12.62;68.85;99490.41;4125183;28;20122;-62
2023/04/24 00:42:23;;;;;;;2.25;1.30;;;;;;;12.60;68.79;99495.66;4118445;28;20059;-62
2023/04/24 00:44:26;;;;;;;4.60;1.83;;;;;;;12.68;68.60;99490.34;4136891;28;20060;-62
2023/04/24 00:46:32;;;;;;;2.13;1.20;;;;;;;12.70;68.71;99493.78;4126754;28;20046;-62
2023/04/24 00:48:35;;;;;;;2.45;1.27;;;;;;;12.67;68.36;99499.88;4129797;28;20411;-62
2023/04/24 00:50:39;;;;;;;3.92;2.03;;;;;;;12.63;68.29;99497.31;4129564;28;20452;-62
2023/04/24 00:52:41;;;;;;;4.20;1.52;;;;;;;12.58;68.86;99505.19;4121630;28;20064;-62
2023/04/24 00:54:45;;;;;;;3.92;1.73;;;;;;;12.56;69.00;99497.41;4122910;28;20507;-62
2023/04/24 00:56:48;;;;;;;3.40;1.20;;;;;;;12.57;69.22;99506.06;4121729;28;20077;-62
2023/04/24 00:58:51;;;;;;;1.50;1.17;;;;;;;12.49;68.98;99508.75;4126555;28;20046;-62
2023/04/24 01:00:55;;;;;;;3.22;1.58;;;;;;;12.49;69.14;99506.16;4129189;28;20042;-62
2023/04/24 01:03:02;;;;;;;7.78;1.98;;;;;;;12.58;69.04;99506.06;4128326;28;20087;-63
2023/04/24 01:05:06;;;;;;;3.35;1.23;;;;;;;12.52;69.25;99500.91;4119742;28;20105;-62
2023/04/24 01:07:11;;;;;;;5.82;1.80;;;;;;;12.61;69.16;99501.72;4122386;28;20041;-62
2023/04/24 01:09:14;;;;;;;;;;;;;;;12.40;69.05;99507.09;4110059;28;20046;-62
2023/04/24 01:11:18;;;;;;;3.38;1.30;;;;;;;12.50;69.36;99507.00;4107859;28;19922;-62
2023/04/24 01:13:21;;;;;;;4.90;1.25;;;;;;;12.64;69.25;99504.28;4121070;28;20047;-62
2023/04/24 01:15:24;;;;;;;2.78;1.50;;;;;;;12.70;69.39;99502.50;4116537;28;20042;-62
2023/04/24 01:17:27;;;;;;;4.35;1.60;;;;;;;12.61;69.63;99504.31;4120772;28;20050;-62
2023/04/24 01:19:31;;;;;;;4.35;1.30;;;;;;;12.56;70.09;99507.81;4124941;28;20044;-62
2023/04/24 01:21:37;;;;;;;4.03;1.92;;;;;;;12.60;69.83;99497.38;4144179;28;20385;-62
2023/04/24 01:23:41;;;;;;;4.75;1.52;;;;;;;12.63;69.51;99495.59;4141619;28;20030;-62
2023/04/24 01:25:44;;;;;;;6.50;1.83;;;;;;;12.60;69.68;99489.53;4120072;28;20049;-62
2023/04/24 01:27:47;;;;;;;5.68;1.55;;;;;;;12.53;70.15;99497.44;4131987;28;20042;-62
2023/04/24 01:29:51;;;;;;;4.40;1.50;;;;;;;12.51;69.95;99488.78;4126677;28;20440;-62
2023/04/24 01:31:55;;;;;;;2.65;1.65;;;;;;;12.44;70.20;99494.91;4133962;28;20084;-62
2023/04/24 01:33:58;;;;;;;5.10;1.80;;;;;;;12.52;70.00;99490.47;4119483;28;20101;-61
2023/04/24 01:36:01;;;;;;;6.60;1.40;;;;;;;12.54;69.77;99493.94;4119616;28;20589;-62
2023/04/24 01:38:05;;;;;;;2.35;1.40;;;;;;;12.51;69.86;99487.88;4124900;28;20089;-61
2023/04/24 01:40:10;;;;;;;2.47;1.25;;;;;;;12.56;70.03;99486.97;4129052;28;20432;-62
2023/04/24 01:42:14;;;;;;;3.20;1.38;;;;;;;12.59;69.35;99488.69;4123995;28;20034;-62
2023/04/24 01:44:18;;;;;;;3.53;1.70;;;;;;;12.47;69.35;99492.28;4125050;28;20069;-62
2023/04/24 01:46:21;;;;;;;4.88;1.42;;;;;;;12.36;69.35;99491.50;4106946;28;20375;-62
2023/04/24 01:48:24;;;;;;;2.75;1.30;;;;;;;12.39;69.42;99494.94;4125469;28;20043;-62
2023/04/24 01:50:27;;;;;;;2.30;1.38;;;;;;;12.25;70.12;99491.59;4127316;28;20451;-62
2023/04/24 01:52:32;;;;;;;2.60;1.13;;;;;;;12.09;70.27;99487.38;4109746;28;20688;-62
2023/04/24 01:54:35;;;;;;;3.15;1.70;;;;;;;12.17;70.08;99490.78;4114531;28;20035;-62
2023/04/24 01:56:42;;;;;;;4.45;1.25;;;;;;;12.15;70.59;99479.50;4125274;28;20034;-62
2023/04/24 01:58:46;;;;;;;4.93;1.70;;;;;;;12.15;70.53;99480.38;4111072;28;20059;-63
2023/04/24 02:00:48;;;;;;;3.45;1.70;;;;;;;12.16;70.03;99476.91;4118717;28;20053;-62
2023/04/24 02:02:51;;;;;;;3.53;1.35;;;;;;;12.31;70.39;99485.44;4120135;28;20106;-62
2023/04/24 02:04:55;;;;;;;2.50;1.52;;;;;;;12.31;70.07;99480.25;4123251;28;20604;-62
2023/04/24 02:06:57;;;;;;;3.40;1.55;;;;;;;12.31;70.41;99482.84;4124291;28;20110;-62
2023/04/24 02:09:01;;;;;;;1.67;1.10;;;;;;;12.32;69.98;99476.75;4113816;28;20454;-62
2023/04/24 02:11:04;;;;;;;4.20;1.40;;;;;;;12.30;69.99;99476.78;4123649;28;20062;-62
2023/04/24 02:13:08;;;;;;;4.13;1.38;;;;;;;12.16;70.21;99481.25;4120466;28;20510;-62
2023/04/24 02:15:11;;;;;;;5.22;1.70;;;;;;;12.16;70.41;99481.25;4127014;28;20065;-62
2023/04/24 02:17:15;;;;;;;7.43;2.05;;;;;;;12.21;70.37;99477.72;4131164;28;20424;-62
2023/04/24 02:19:18;;;;;;;3.65;1.42;;;;;;;12.15;70.17;99474.28;4151286;28;20096;-62
2023/04/24 02:21:21;;;;;;;3.08;1.25;;;;;;;12.25;70.37;99475.09;4147389;28;20121;-62
2023/04/24 02:23:25;;;;;;;3.85;1.85;;;;;;;12.32;69.79;99476.75;4136517;28;20034;-62
2023/04/24 02:25:28;;;;;;;3.25;1.17;;;;;;;12.28;70.07;99469.84;4123332;28;20053;-62
2023/04/24 02:27:31;;;;;;;4.18;1.38;;;;;;;12.28;69.99;99467.25;4130706;28;20039;-62
2023/04/24 02:29:35;;;;;;;2.22;1.02;;;;;;;12.23;70.00;99472.50;4130343;28;20096;-62
2023/04/24 02:31:38;;;;;;;;;;;;;;;12.05;70.28;99473.53;4124958;28;20069;-62
2023/04/24 02:33:41;;;;;;;3.03;1.10;;;;;;;11.99;70.63;99476.19;4123501;28;19929;-62
2023/04/24 02:35:44;;;;;;;2.83;1.20;;;;;;;12.02;71.06;99474.41;4121718;28;20066;-62
2023/04/24 02:37:47;;;;;;;3.58;1.20;;;;;;;12.12;70.58;99470.00;4123556;28;20058;-62
2023/04/24 02:39:50;;;;;;;4.80;1.35;;;;;;;12.08;70.57;99485.66;4130992;28;20069;-62
2023/04/24 02:41:53;;;;;;;4.70;1.52;;;;;;;11.99;71.22;99528.28;4128219;28;20038;-62
2023/04/24 02:43:56;;;;;;;4.13;1.50;;;;;;;11.94;71.87;99538.69;4123661;28;20122;-62
2023/04/24 02:46:00;;;;;;;3.33;1.35;;;;;;;12.00;71.63;99537.78;4108212;28;20517;-62
2023/04/24 02:48:04;;;;;;;3.83;1.27;;;;;;;11.77;70.79;99546.59;4130795;28;20045;-62
2023/04/24 02:50:08;;;;;;;4.35;1.30;;;;;;;11.65;70.71;99541.44;4125292;28;20085;-62
2023/04/24 02:52:11;;;;;;;3.75;1.17;;;;;;;11.49;72.44;99525.91;4142131;28;20038;-62
2023/04/24 02:54:14;;;;;;;2.25;1.00;;;;;;;11.52;72.56;99543.22;4141215;28;20446;-61
2023/04/24 02:56:17;;;;;;;1.80;1.00;;;;;;;11.52;72.92;99543.22;4134412;28;20048;-61
2023/04/24 02:58:20;;;;;;;5.25;1.10;;;;;;;11.49;73.52;99548.44;4120223;28;20038;-61
2023/04/24 03:00:23;;;;;;;2.55;1.60;;;;;;;11.42;74.08;99555.44;4125272;28;20046;-61
2023/04/24 03:02:27;;;;;;;8.32;1.77;;;;;;;11.44;73.79;99548.47;4126862;28;20488;-61
2023/04/24 03:04:30;;;;;;;3.05;1.33;;;;;;;11.50;74.57;99551.03;4129053;28;20053;-61
2023/04/24 03:06:36;;;;;;;9.65;1.77;;;;;;;11.43;74.01;99554.53;4117336;28;20138;-61
2023/04/24 03:08:39;;;;;;;7.30;1.60;;;;;;;11.38;74.14;99550.25;4135943;28;20038;-61
2023/04/24 03:10:41;;;;;;;8.23;1.73;;;;;;;11.45;74.88;99555.41;4146535;28;20052;-61
2023/04/24 03:12:45;;;;;;;2.75;1.42;;;;;;;11.51;75.03;99550.19;4151511;28;20050;-61
2023/04/24 03:14:48;;;;;;;2.55;1.80;;;;;;;11.49;74.16;99551.94;4128802;28;20492;-61
2023/04/24 03:16:52;;;;;;;4.40;1.77;;;;;;;11.55;74.26;99539.75;4129336;28;20047;-61
2023/04/24 03:18:56;;;;;;;2.67;1.88;;;;;;;11.56;73.54;99531.09;4124715;28;20042;-61
2023/04/24 03:21:01;;;;;;;4.35;2.03;;;;;;;11.56;72.53;99531.09;4141011;28;20042;-61
2023/04/24 03:23:05;;;;;;;2.83;1.48;;;;;;;11.43;71.58;99531.13;4140150;28;20034;-61
2023/04/24 03:25:09;;;;;;;3.40;1.75;;;;;;;11.46;71.88;99536.34;4114708;28;20538;-61
2023/04/24 03:27:13;;;;;;;3.42;1.85;;;;;;;11.52;71.36;99536.31;4139144;28;20584;-61
2023/04/24 03:29:29;;;;;;;2.67;1.30;;;;;;;11.51;71.57;99536.31;4145669;28;20520;-61
2023/04/24 03:31:33;;;;;;;1.58;1.38;;;;;;;11.35;70.54;99538.97;4124598;28;20081;-61
2023/04/24 03:33:36;;;;;;;2.50;1.38;;;;;;;11.29;71.35;99538.16;4124800;28;20125;-61
2023/04/24 03:35:41;;;;;;;1.83;1.45;;;;;;;11.35;70.13;99546.78;4121131;28;20231;-61
2023/04/24 03:37:45;;;;;;;2.25;1.20;;;;;;;11.28;71.08;99547.66;4140572;28;20490;-61
2023/04/24 03:40:14;;;;;;;3.83;1.70;;;;;;;11.26;71.26;99554.63;4121605;28;20077;-61
2023/04/24 03:42:17;;;;;;;3.25;1.35;;;;;;;11.25;70.46;99562.44;4128406;28;20092;-61
2023/04/24 03:44:26;;;;;;;1.92;1.42;;;;;;;11.24;70.58;99565.91;4122177;28;20514;-61
2023/04/24 03:46:29;;;;;;;1.95;1.30;;;;;;;11.27;70.24;99578.91;4139924;28;20408;-60
2023/04/24 03:48:34;;;;;;;3.75;1.33;;;;;;;11.28;70.05;99578.03;4125080;28;20035;-61
2023/04/24 03:50:37;;;;;;;2.20;1.40;;;;;;;11.28;70.12;99572.81;4126119;28;20045;-61
2023/04/24 03:52:43;;;;;;;1.77;1.27;;;;;;;11.23;69.36;99569.34;4123488;28;20169;-60
2023/04/24 03:54:53;;;;;;;2.17;1.33;;;;;;;11.21;69.79;99571.97;4133191;28;20132;-60
2023/04/24 03:56:56;;;;;;;2.03;1.33;;;;;;;11.29;69.28;99574.56;4134476;28;20046;-60
2023/04/24 03:59:02;;;;;;;3.00;1.10;;;;;;;11.15;69.41;99582.41;4128712;28;20069;-60
2023/04/24 04:01:06;;;;;;;3.28;1.27;;;;;;;10.98;68.73;99579.81;4122936;28;20097;-60
2023/04/24 04:03:41;;;;;;;3.58;1.50;;;;;;;11.08;70.75;99589.38;4115722;28;20177;-60
2023/04/24 04:05:44;;;;;;;2.00;1.30;;;;;;;11.00;68.94;99594.56;4124472;28;20056;-72
2023/04/24 04:07:48;;;;;;;4.63;1.85;;;;;;;11.26;70.29;99598.84;4128312;28;20404;-72
2023/04/24 04:09:51;;;;;;;4.55;1.92;;;;;;;11.37;69.77;99604.00;4133437;28;20463;-70
2023/04/24 04:11:54;;;;;;;7.25;2.05;;;;;;;11.69;70.54;99606.50;4133837;28;20069;-71
2023/04/24 04:13:57;;;;;;;8.40;2.28;;;;;;;11.83;68.52;99598.63;4125067;28;20038;-71
2023/04/24 04:16:00;;;;;;;4.00;1.85;;;;;;;12.01;68.27;99608.13;4126275;28;20488;-71
2023/04/24 04:18:04;;;;;;;6.78;1.65;;;;;;;12.03;66.89;99605.50;4125938;28;20050;-70
2023/04/24 04:20:09;;;;;;;4.13;1.70;;;;;;;11.99;67.09;99609.88;4129075;28;20049;-70
2023/04/24 04:22:13;;;;;;;4.03;2.00;;;;;;;12.09;66.97;99613.31;4124952;28;20130;-71
2023/04/24 04:24:22;;;;;;;2.30;1.60;;;;;;;12.13;67.35;99621.97;4125717;28;20100;-70
2023/04/24 04:26:25;;;;;;;;;;;;;;;12.18;67.84;99618.47;4137415;28;20053;-61
2023/04/24 04:28:44;;;;;;;3.53;1.70;;;;;;;12.03;66.63;99624.63;4125515;28;20432;-60
2023/04/24 04:30:48;;;;;;;2.95;1.75;;;;;;;11.88;67.27;99624.66;4126054;28;20504;-61
2023/04/24 04:32:51;;;;;;;3.22;2.08;;;;;;;11.72;67.38;99629.06;4112281;28;20146;-60
2023/04/24 04:34:54;;;;;;;6.90;2.55;;;;;;;11.56;67.74;99635.19;4112335;28;20057;-60
2023/04/24 04:37:00;;;;;;;3.33;2.60;;;;;;;11.45;68.96;99637.84;4115879;28;20524;-60
2023/04/24 04:39:22;;;;;;;3.00;2.03;;;;;;;11.37;68.68;99645.66;4122744;28;20141;-61
2023/04/24 04:41:51;;;;;;;3.53;2.28;;;;;;;11.28;69.31;99656.09;4120833;28;20046;-61
2023/04/24 04:43:58;;;;;;;5.70;1.92;;;;;;;11.22;69.35;99645.69;4122778;28;20038;-61
2023/04/24 04:46:03;;;;;;;3.63;2.28;;;;;;;11.18;69.27;99648.31;4113014;28;20086;-60
2023/04/24 04:48:19;;;;;;;4.25;2.10;;;;;;;11.12;70.11;99650.91;4123767;28;20042;-61
2023/04/24 04:50:22;;;;;;;8.05;2.35;;;;;;;10.96;68.06;99649.19;4125503;28;20090;-60
2023/04/24 04:52:36;;;;;;;4.07;2.00;;;;;;;10.91;69.29;99650.94;4128483;28;20452;-61
2023/04/24 04:55:03;;;;;;;4.53;2.35;;;;;;;10.85;68.92;99651.81;4120374;28;20093;-60
2023/04/24 04:57:26;;;;;;;4.38;2.10;;;;;;;10.86;69.28;99663.91;4126102;28;20038;-61
2023/04/24 04:59:51;;;;;;;4.03;2.45;;;;;;;10.78;68.29;99663.06;4126941;28;20042;-95
2023/04/24 05:02:06;;;;;;;10.45;3.05;;;;;;;10.73;69.03;99656.97;4105655;28;20062;-65
2023/04/24 05:04:09;;;;;;;7.43;2.50;;;;;;;10.78;68.50;99653.53;4111959;28;20432;-65
2023/04/24 05:06:13;;;;;;;8.73;3.55;;;;;;;10.77;67.74;99658.72;4111734;28;20045;-66
2023/04/24 05:08:16;;;;;;;4.88;2.10;;;;;;;10.81;68.53;99666.50;4114909;28;20050;-65
2023/04/24 05:10:30;;;;;;;6.25;2.30;;;;;;;10.80;68.58;99690.78;4140680;28;20042;-65
2023/04/24 05:12:33;;;;;;;4.65;2.40;;;;;;;10.75;68.22;99683.88;4112682;28;20046;-65
2023/04/24 05:14:38;;;;;;;6.25;2.20;;;;;;;10.70;68.20;99678.63;4143804;28;20042;-65
2023/04/24 05:16:41;;;;;;;5.35;2.28;;;;;;;10.69;68.09;99682.13;4111918;28;20046;-67
2023/04/24 05:18:45;;;;;;;8.18;2.92;;;;;;;10.63;68.27;99687.28;4073596;29;20127;-65
2023/04/24 05:20:51;;;;;;;5.88;2.95;;;;;;;10.64;67.93;99694.22;4111844;28;20097;-65
2023/04/24 05:22:54;;;;;;;6.75;3.05;;;;;;;10.61;67.90;99697.69;4114790;28;20400;-65
2023/04/24 05:24:58;;;;;;;7.65;3.65;;;;;;;10.68;67.97;99701.16;4141159;28;20040;-65
2023/04/24 05:27:31;;;;;;;6.63;3.50;;;;;;;10.66;66.79;99700.31;4120746;28;20561;-66
2023/04/24 05:29:35;;;;;;;6.63;3.47;;;;;;;10.66;66.78;99692.50;4112133;28;20039;-66
2023/04/24 05:31:40;;;;;;;4.68;3.42;;;;;;;10.67;65.92;99699.44;4110995;28;20035;-66
2023/04/24 05:33:43;;;;;;;6.70;3.30;;;;;;;10.71;65.85;99693.38;4111332;28;20039;-67
2023/04/24 05:35:46;;;;;;;8.02;3.72;;;;;;;10.69;66.26;99697.72;4118333;28;20453;-66
2023/04/24 05:37:50;;;;;;;4.65;3.42;;;;;;;10.70;65.75;99699.44;4088877;28;20138;-66
2023/04/24 05:39:53;;;;;;;5.55;4.22;;;;;;;10.75;65.68;99700.31;4083853;28;20512;-65
2023/04/24 05:41:57;;;;;;;6.55;4.47;;;;;;;10.77;65.85;99716.78;4132404;28;20133;-65
2023/04/24 05:44:02;;;;;;;5.22;3.67;;;;;;;10.83;66.33;99716.81;4132059;28;20046;-66
2023/04/24 05:46:06;;;;;;;8.00;4.22;;;;;;;10.88;65.48;99718.50;4142414;28;20040;-66
2023/04/24 05:48:09;;;;;;;9.75;5.90;;;;;;;10.93;64.87;99715.06;4131051;28;20140;-66
2023/04/24 05:50:13;;;;;;;5.97;4.18;;;;;;;10.97;65.33;99709.00;4115096;28;20093;-66
2023/04/24 05:52:16;;;;;;;7.00;3.85;;;;;;;10.96;64.09;99717.66;4113966;28;20054;-66
2023/04/24 05:54:19;;;;;;;8.07;4.80;;;;;;;10.90;64.03;99720.25;4138206;28;20483;-66
2023/04/24 05:56:22;;;;;;;7.65;5.22;;;;;;;10.93;63.70;99730.66;4110312;28;20162;-66
2023/04/24 05:58:25;;;;;;;5.47;4.03;;;;;;;10.94;64.05;99724.59;4129440;28;20133;-66
2023/04/24 06:00:30;;;;;;;6.78;3.53;;;;;;;10.93;64.28;99730.66;4144491;28;20100;-67
2023/04/24 06:02:39;;;;;;;8.65;3.83;;;;;;;10.94;64.24;99731.56;4114279;28;20051;-66
2023/04/24 06:04:46;;;;;;;7.28;4.28;;;;;;;10.92;63.88;99730.66;4100833;28;20504;-67
2023/04/24 06:06:50;;;;;;;5.22;3.92;;;;;;;10.99;64.10;99729.81;4115666;28;20485;-68
2023/04/24 06:08:54;;;;;;;7.40;3.90;;;;;;;11.05;64.84;99731.53;4132075;28;20049;-65
2023/04/24 06:10:57;;;;;;;9.85;3.78;;;;;;;10.98;63.85;99731.53;4146890;28;20587;-68
2023/04/24 06:13:01;;;;;;;5.72;3.33;;;;;;;11.10;64.50;99740.22;4131000;28;20492;-66
2023/04/24 06:15:06;;;;;;;8.25;3.63;;;;;;;11.12;64.27;99736.75;4114745;28;20093;-69
2023/04/24 06:17:27;;;;;;;8.50;3.47;;;;;;;11.17;64.88;99742.81;4146294;28;20159;-68
2023/04/24 06:19:30;;;;;;;8.50;3.05;;;;;;;11.14;63.84;99737.63;4108811;28;20127;-65
2023/04/24 06:21:33;;;;;;;7.88;3.20;;;;;;;11.03;64.50;99752.34;4113110;28;20079;-65
2023/04/24 06:23:36;;;;;;;5.45;3.05;;;;;;;11.06;64.57;99746.28;4098006;28;20047;-66
2023/04/24 06:25:39;;;;;;;8.10;3.47;;;;;;;11.11;65.12;99752.34;4131816;28;20049;-65
2023/04/24 06:27:42;;;;;;;10.85;3.20;;;;;;;11.09;66.23;99754.09;4115768;28;20038;-68
2023/04/24 06:29:45;;;;;;;10.27;3.25;;;;;;;11.03;66.38;99744.53;4129180;28;20488;-66
2023/04/24 06:31:48;;;;;;;8.88;3.47;;;;;;;10.99;67.17;99761.00;4130188;28;20093;-66
2023/04/24 06:33:52;;;;;;;8.70;4.10;;;;;;;10.90;67.97;99764.47;4113597;28;20042;-67
2023/04/24 06:35:55;;;;;;;11.90;4.18;;;;;;;10.79;68.72;99767.06;4130411;28;20042;-66
2023/04/24 06:37:58;;;;;;;9.48;3.70;;;;;;;10.75;68.60;99778.31;4130949;28;20095;-67
2023/04/24 06:40:01;;;;;;;7.05;3.15;;;;;;;10.69;69.63;99770.50;4131404;28;20046;-66
2023/04/24 06:42:04;;;;;;;5.95;2.63;;;;;;;10.47;69.98;99773.03;4132540;28;20061;-67
2023/04/24 06:44:10;;;;;;;6.32;2.67;;;;;;;10.45;70.21;99763.50;4127735;28;20400;-66
2023/04/24 06:46:13;;;;;;;4.45;2.00;;;;;;;10.46;69.70;99767.84;4131365;28;20038;-66
2023/04/24 06:48:16;;;;;;;5.75;1.60;;;;;;;10.39;69.42;99761.72;4128450;28;20049;-66
2023/04/24 06:50:20;;;;;;;11.70;1.90;;;;;;;10.31;69.53;99760.81;4097677;29;20127;-66
2023/04/24 06:52:23;;;;;;;10.10;2.90;;;;;;;10.39;70.05;99763.47;4128955;28;20496;-66
2023/04/24 06:54:26;;;;;;;8.98;2.42;;;;;;;10.42;70.31;99750.50;4131272;28;20092;-66
2023/04/24 06:56:29;;;;;;;8.57;2.95;;;;;;;10.45;70.49;99759.19;4145951;28;20041;-66
2023/04/24 06:58:32;;;;;;;3.42;2.05;;;;;;;10.42;69.80;99760.88;4109534;28;20039;-66
2023/04/24 07:00:37;;;;;;;4.57;2.53;;;;;;;10.35;69.96;99757.38;4129977;28;20042;-66
2023/04/24 07:02:40;;;;;;;5.10;2.30;;;;;;;10.34;70.38;99753.06;4131513;28;20830;-66
2023/04/24 07:04:43;;;;;;;6.43;2.40;;;;;;;10.26;69.58;99754.72;4130240;28;20042;-65
2023/04/24 07:06:48;;;;;;;9.93;2.75;;;;;;;10.37;67.64;99763.47;4113935;28;20085;-66
2023/04/24 07:08:51;;;;;;;3.58;1.90;;;;;;;10.51;67.65;99762.66;4131180;28;20042;-65
2023/04/24 07:10:55;;;;;;;3.80;1.67;;;;;;;10.55;66.88;99774.78;4129630;28;20039;-66
2023/04/24 07:12:58;;;;;;;2.95;1.55;;;;;;;10.50;65.94;99776.50;4130396;28;20053;-66
2023/04/24 07:15:01;;;;;;;3.90;1.48;;;;;;;10.60;65.14;99775.66;4130812;28;20042;-65
2023/04/24 07:17:05;;;;;;;3.33;1.73;;;;;;;10.67;65.28;99777.41;4130800;28;20042;-65
2023/04/24 07:19:08;;;;;;;3.75;1.60;;;;;;;10.91;65.15;99780.97;4129924;28;20049;-66
2023/04/24 07:21:11;;;;;;;2.83;1.83;;;;;;;11.02;63.86;99783.56;4097555;29;20047;-65
2023/04/24 07:23:15;;;;;;;3.03;1.40;;;;;;;11.03;63.92;99777.50;4111934;28;20054;-66
2023/04/24 07:25:18;;;;;;;5.20;1.50;;;;;;;11.00;63.18;99781.81;4137108;28;20061;-65
2023/04/24 07:27:21;;;;;;;5.30;2.28;;;;;;;10.97;63.85;99781.81;4130738;28;20097;-65
2023/04/24 07:29:26;;;;;;;10.90;1.90;;;;;;;10.91;63.98;99779.22;4113694;28;20053;-65
2023/04/24 07:31:29;;;;;;;3.30;1.95;;;;;;;10.88;63.52;99773.13;4129511;28;20038;-65
2023/04/24 07:33:32;;;;;;;2.38;1.58;;;;;;;10.81;64.08;99780.06;4130371;28;20487;-65
2023/04/24 07:35:35;;;;;;;5.95;2.53;;;;;;;10.89;64.17;99783.53;4130593;28;20392;-65
2023/04/24 07:37:38;;;;;;;6.93;2.38;;;;;;;11.05;63.68;99775.75;4128197;28;20034;-65
2023/04/24 07:39:43;;;;;;;4.93;1.83;;;;;;;11.17;63.08;99776.66;4113789;28;20488;-65
2023/04/24 07:41:46;;;;;;;6.50;2.00;;;;;;;11.28;63.30;99770.56;4125020;28;20046;-65
2023/04/24 07:43:49;;;;;;;4.78;2.35;;;;;;;11.47;62.85;99774.03;4111395;28;20050;-65
2023/04/24 07:45:52;;;;;;;9.45;2.03;;;;;;;11.59;61.64;99775.75;4130351;28;20081;-65
2023/04/24 07:47:55;;;;;;;5.78;2.20;;;;;;;11.66;61.55;99762.72;4144960;28;20088;-65
2023/04/24 07:49:58;;;;;;;8.70;2.15;;;;;;;11.87;61.61;99755.75;4131505;28;20102;-65
2023/04/24 07:52:02;;;;;;;7.28;2.00;;;;;;;11.78;60.71;99768.78;4112308;28;20046;-65
2023/04/24 07:54:06;;;;;;;9.63;2.50;;;;;;;11.88;59.90;99779.22;4120524;28;20404;-65
2023/04/24 07:56:10;;;;;;;4.45;2.33;;;;;;;11.97;59.55;99780.97;4117920;28;20050;-65
2023/04/24 07:58:13;;;;;;;3.03;2.08;;;;;;;12.16;59.76;99773.94;4125604;28;20110;-65
2023/04/24 08:00:17;;;;;;;6.35;2.17;;;;;;;12.20;58.65;99793.03;4127954;28;20042;-65
2023/04/24 08:02:21;;;;;;;2.28;1.60;;;;;;;12.36;58.21;99796.47;4124128;28;20098;-65
2023/04/24 08:04:24;;;;;;;3.80;1.35;;;;;;;12.49;56.67;99802.50;4138197;28;20065;-64
2023/04/24 08:06:29;;;;;;;1.85;1.60;;;;;;;12.35;56.08;99799.94;4128801;28;20475;-65
2023/04/24 08:08:33;;;;;;;3.30;1.60;;;;;;;12.27;57.06;99786.06;4129057;28;20538;-65
2023/04/24 08:10:36;;;;;;;4.00;1.73;;;;;;;12.31;56.95;99799.09;4129370;28;20049;-65
2023/04/24 08:12:40;;;;;;;2.47;1.63;;;;;;;12.53;56.65;99796.41;4129564;28;20053;-67
2023/04/24 08:14:43;;;;;;;6.13;2.08;;;;;;;12.66;56.16;99791.97;4128695;28;20117;-67
2023/04/24 08:16:46;;;;;;;2.40;1.58;;;;;;;12.51;56.27;99795.53;4128637;28;20049;-65
2023/04/24 08:18:49;;;;;;;5.32;1.45;;;;;;;12.44;55.89;99805.13;4128860;28;20035;-66
2023/04/24 08:20:52;;;;;;;2.17;1.50;;;;;;;12.44;55.54;99810.34;4111346;28;20052;-65
2023/04/24 08:22:56;;;;;;;2.88;1.33;;;;;;;12.32;55.15;99811.22;4129391;28;20510;-65
2023/04/24 08:25:01;;;;;;;4.82;2.00;;;;;;;12.05;56.36;99806.97;4129493;28;20065;-65
2023/04/24 08:27:04;;;;;;;3.90;1.63;;;;;;;11.91;56.47;99809.56;4129838;28;20486;-65
2023/04/24 08:29:08;;;;;;;2.70;1.63;;;;;;;11.94;56.59;99812.19;4130864;28;20469;-65
2023/04/24 08:31:11;;;;;;;2.33;1.70;;;;;;;11.83;56.73;99838.25;4144203;28;20121;-65
2023/04/24 08:33:14;;;;;;;3.55;1.90;;;;;;;12.14;55.32;99833.00;4129152;28;20093;-65
2023/04/24 08:35:20;;;;;;;2.15;1.67;;;;;;;12.28;54.89;99832.97;4112580;28;20055;-65
2023/04/24 08:37:22;;;;;;;1.80;1.45;;;;;;;12.50;54.17;99827.66;4111285;28;20042;-64
2023/04/24 08:39:25;;;;;;;4.55;1.60;;;;;;;12.53;54.22;99827.69;4143361;28;20033;-65
2023/04/24 08:41:28;;;;;;;4.15;2.03;;;;;;;12.73;54.13;99838.00;4126352;28;20044;-65
2023/04/24 08:43:33;;;;;;;2.65;1.80;;;;;;;12.80;53.29;99834.50;4127551;28;20403;-65
2023/04/24 08:45:38;;;;;;;5.15;2.08;;;;;;;12.80;53.98;99839.72;4129656;28;20518;-66
2023/04/24 08:47:43;;;;;;;3.72;1.90;;;;;;;12.85;53.85;99852.72;4129845;28;20137;-65
2023/04/24 08:49:49;;;;;;;5.00;1.90;;;;;;;12.65;54.49;99847.63;4115567;28;20495;-65
2023/04/24 08:51:53;;;;;;;3.90;1.98;;;;;;;12.55;55.38;99847.63;4128773;28;20455;-65
2023/04/24 08:53:57;;;;;;;7.38;2.15;;;;;;;12.36;55.52;99845.97;4128456;28;20035;-65
2023/04/24 08:56:02;;;;;;;10.60;2.38;;;;;;;12.26;55.28;99847.72;4129543;28;20093;-65
2023/04/24 08:58:05;;;;;;;5.82;1.90;;;;;;;12.13;56.71;99854.72;4128979;28;20402;-65
2023/04/24 09:00:09;;;;;;;6.32;1.83;;;;;;;12.01;57.42;99857.34;4112030;28;20073;-65
2023/04/24 09:02:16;;;;;;;5.70;1.92;;;;;;;12.10;57.78;99870.34;4111609;28;20042;-66
2023/04/24 09:04:24;;;;;;;4.30;2.05;;;;;;;12.13;58.56;99867.72;4128553;28;20034;-66
2023/04/24 09:06:28;;;;;;;3.00;1.85;;;;;;;12.29;58.31;99867.72;4112282;28;20031;-66
2023/04/24 09:08:31;;;;;;;6.70;2.63;;;;;;;12.15;56.91;99876.44;4144000;28;20042;-66
2023/04/24 09:10:36;;;;;;;4.63;2.10;;;;;;;12.04;57.17;99880.78;4110780;28;20472;-66
2023/04/24 09:12:39;;;;;;;5.68;2.08;;;;;;;11.93;56.96;99891.22;4114741;28;20067;-65
2023/04/24 09:14:44;;;;;;;5.85;2.10;;;;;;;11.84;56.60;99879.03;4095856;28;20397;-65
2023/04/24 09:16:48;;;;;;;18.65;2.55;;;;;;;11.85;56.42;99892.94;4115135;28;20045;-65
2023/04/24 09:18:53;;;;;;;6.13;2.40;;;;;;;11.74;56.51;99892.94;4128405;28;20133;-66
2023/04/24 09:21:01;;;;;;;10.05;2.03;;;;;;;11.66;56.35;99889.44;4111038;28;20117;-66
2023/04/24 09:23:06;;;;;;;14.13;2.65;;;;;;;11.73;56.11;99893.78;4091198;28;20045;-65
2023/04/24 09:25:12;;;;;;;3.08;1.80;;;;;;;11.64;56.37;99883.38;4126476;28;20052;-65
2023/04/24 09:27:17;;;;;;;;;;;;;;;11.82;56.87;99883.38;4112427;28;20081;-66
2023/04/24 09:29:19;;;;;;;11.60;2.42;;;;;;;11.95;56.70;99883.41;4111863;28;19968;-66
2023/04/24 09:31:22;;;;;;;18.38;2.65;;;;;;;12.09;56.43;99892.09;4140043;28;20463;-66
2023/04/24 09:33:25;;;;;;;8.98;2.28;;;;;;;12.33;55.88;99892.91;4126369;28;20125;-66
2023/04/24 09:35:30;;;;;;;6.78;2.10;;;;;;;12.26;54.71;99904.22;4141023;28;20068;-66
2023/04/24 09:37:36;;;;;;;4.43;2.65;;;;;;;12.26;55.39;99894.66;4108029;28;20381;-65
2023/04/24 09:39:40;;;;;;;16.30;2.95;;;;;;;12.40;54.91;99899.84;4143004;28;20487;-66
2023/04/24 09:41:47;;;;;;;7.60;2.70;;;;;;;12.51;55.18;99900.69;4130401;28;20038;-66
2023/04/24 09:43:50;;;;;;;6.50;2.00;;;;;;;12.50;55.17;99901.56;4115810;28;20491;-66
2023/04/24 09:45:57;;;;;;;8.85;2.10;;;;;;;12.61;55.31;99900.66;4127865;28;20470;-65
2023/04/24 09:48:00;;;;;;;11.45;2.65;;;;;;;12.70;54.91;99901.50;4129240;28;20034;-66